Time,TemperatureF,DewpointF,PressureIn,WindDirection,WindDirectionDegrees,WindSpeedMPH,WindSpeedGustMPH,Humidity,HourlyPrecipIn,Conditions,Clouds,dailyrainin,SoftwareType,DateUTC
2013-01-27 00:05:00,22.6,20.7,29.70,South,180,0.0,-999.0,92,-99.99,,,0.00,Acu-Link.com,2013-01-27 07:05:00,
2013-01-27 00:21:00,22.1,20.9,29.69,East,90,2.7,-999.0,95,-99.99,,,0.00,Acu-Link.com,2013-01-27 07:21:00,
2013-01-27 00:36:00,21.4,19.7,29.69,East,90,1.6,-999.0,93,-99.99,,,0.00,Acu-Link.com,2013-01-27 07:36:00,
2013-01-27 00:51:00,21.2,20.0,29.68,ESE,112,4.7,-999.0,95,-99.99,,,0.00,Acu-Link.com,2013-01-27 07:51:00,
2013-01-27 01:06:00,20.5,19.3,29.68,ESE,112,2.7,-999.0,95,-99.99,,,0.00,Acu-Link.com,2013-01-27 08:06:00,
2013-01-27 01:21:00,20.1,19.2,29.68,SE,135,1.6,-999.0,96,-99.99,,,0.00,Acu-Link.com,2013-01-27 08:21:00,
2013-01-27 01:36:00,19.8,18.8,29.68,SE,135,2.2,-999.0,96,-99.99,,,0.00,Acu-Link.com,2013-01-27 08:36:00,
2013-01-27 01:51:00,19.6,18.6,29.68,SSE,157,0.0,-999.0,96,-99.99,,,0.00,Acu-Link.com,2013-01-27 08:51:00,
2013-01-27 02:16:00,19.6,18.6,29.68,South,180,1.6,-999.0,96,-99.99,,,0.00,Acu-Link.com,2013-01-27 09:16:00,
2013-01-27 02:31:00,18.9,17.9,29.67,ESE,112,4.7,-999.0,96,-99.99,,,0.00,Acu-Link.com,2013-01-27 09:31:00,
2013-01-27 02:46:00,19.9,18.7,29.66,South,180,9.8,-999.0,95,-99.99,,,0.00,Acu-Link.com,2013-01-27 09:46:00,
2013-01-27 03:02:00,18.9,17.4,29.66,SSE,157,2.7,-999.0,94,-99.99,,,0.00,Acu-Link.com,2013-01-27 10:02:00,
2013-01-27 03:17:00,18.3,17.1,29.64,South,180,5.1,-999.0,95,-99.99,,,0.00,Acu-Link.com,2013-01-27 10:17:00,
2013-01-27 03:32:00,19.4,17.7,29.64,SSE,157,4.7,-999.0,93,-99.99,,,0.00,Acu-Link.com,2013-01-27 10:32:00,
2013-01-27 03:47:00,18.3,16.9,29.64,South,180,1.1,-999.0,94,-99.99,,,0.00,Acu-Link.com,2013-01-27 10:47:00,
2013-01-27 04:02:00,18.9,17.4,29.64,SSE,157,8.3,-999.0,94,-99.99,,,0.00,Acu-Link.com,2013-01-27 11:02:00,
2013-01-27 04:17:00,18.5,17.1,29.63,South,180,5.8,-999.0,94,-99.99,,,0.00,Acu-Link.com,2013-01-27 11:17:00,
2013-01-27 04:32:00,18.3,16.9,29.63,South,180,5.8,-999.0,94,-99.99,,,0.00,Acu-Link.com,2013-01-27 11:32:00,
2013-01-27 04:47:00,21.4,19.4,29.63,South,180,8.9,-999.0,92,-99.99,,,0.00,Acu-Link.com,2013-01-27 11:47:00,
2013-01-27 05:02:00,20.7,18.7,29.63,South,180,8.9,-999.0,92,-99.99,,,0.00,Acu-Link.com,2013-01-27 12:02:00,
2013-01-27 05:17:00,20.7,18.7,29.62,South,180,8.9,-999.0,92,-99.99,,,0.00,Acu-Link.com,2013-01-27 12:17:00,
2013-01-27 05:32:00,21.0,19.1,29.62,South,180,8.9,-999.0,92,-99.99,,,0.00,Acu-Link.com,2013-01-27 12:32:00,
2013-01-27 05:47:00,22.5,20.5,29.61,South,180,8.9,-999.0,92,-99.99,,,0.00,Acu-Link.com,2013-01-27 12:47:00,
2013-01-27 06:02:00,23.5,21.0,29.62,South,180,10.3,-999.0,90,-99.99,,,0.00,Acu-Link.com,2013-01-27 13:02:00,
2013-01-27 06:17:00,23.7,21.2,29.62,South,180,7.8,-999.0,90,-99.99,,,0.00,Acu-Link.com,2013-01-27 13:17:00,
2013-01-27 06:32:00,23.0,20.5,29.62,South,180,6.7,-999.0,90,-99.99,,,0.00,Acu-Link.com,2013-01-27 13:32:00,
2013-01-27 06:47:00,23.9,21.4,29.62,SSE,157,8.9,-999.0,90,-99.99,,,0.00,Acu-Link.com,2013-01-27 13:47:00,
2013-01-27 07:02:00,22.1,19.6,29.62,SSE,157,6.3,-999.0,90,-99.99,,,0.00,Acu-Link.com,2013-01-27 14:02:00,
2013-01-27 07:18:00,20.7,18.7,29.61,SSW,202,6.3,-999.0,92,-99.99,,,0.00,Acu-Link.com,2013-01-27 14:18:00,
2013-01-27 07:33:00,22.8,20.3,29.62,South,180,6.3,-999.0,90,-99.99,,,0.00,Acu-Link.com,2013-01-27 14:33:00,
2013-01-27 07:48:00,23.0,20.5,29.63,South,180,4.7,-999.0,90,-99.99,,,0.00,Acu-Link.com,2013-01-27 14:48:00,
2013-01-27 08:04:00,23.9,21.1,29.63,SSW,202,5.8,-999.0,89,-99.99,,,0.00,Acu-Link.com,2013-01-27 15:04:00,
2013-01-27 08:19:00,24.6,21.6,29.63,SSW,202,7.8,-999.0,88,-99.99,,,0.00,Acu-Link.com,2013-01-27 15:19:00,
2013-01-27 08:34:00,24.6,21.3,29.63,SW,225,2.2,-999.0,87,-99.99,,,0.00,Acu-Link.com,2013-01-27 15:34:00,
2013-01-27 08:49:00,27.7,23.8,29.63,SSW,202,8.9,-999.0,85,-99.99,,,0.00,Acu-Link.com,2013-01-27 15:49:00,
2013-01-27 09:04:00,28.4,24.2,29.63,SSW,202,6.7,-999.0,84,-99.99,,,0.00,Acu-Link.com,2013-01-27 16:04:00,
2013-01-27 09:19:00,29.3,25.1,29.63,South,180,4.7,-999.0,84,-99.99,,,0.00,Acu-Link.com,2013-01-27 16:19:00,
2013-01-27 09:34:00,30.7,26.2,29.63,SSW,202,5.8,-999.0,83,-99.99,,,0.00,Acu-Link.com,2013-01-27 16:34:00,
2013-01-27 09:49:00,31.1,26.3,29.63,SW,225,3.8,-999.0,82,-99.99,,,0.00,Acu-Link.com,2013-01-27 16:49:00,
2013-01-27 10:04:00,32.9,27.1,29.62,SW,225,8.3,-999.0,79,-99.99,,,0.00,Acu-Link.com,2013-01-27 17:04:00,
2013-01-27 10:19:00,32.2,26.4,29.63,ENE,67,3.1,-999.0,79,-99.99,,,0.00,Acu-Link.com,2013-01-27 17:19:00,
2013-01-27 10:35:00,32.4,26.9,29.64,WSW,247,6.3,-999.0,80,-99.99,,,0.00,Acu-Link.com,2013-01-27 17:35:00,
2013-01-27 10:50:00,33.3,27.5,29.64,West,270,2.7,-999.0,79,-99.99,,,0.00,Acu-Link.com,2013-01-27 17:50:00,
2013-01-27 11:05:00,32.5,27.1,29.63,NNW,337,4.7,-999.0,80,-99.99,,,0.00,Acu-Link.com,2013-01-27 18:05:00,
2013-01-27 11:20:00,33.3,27.5,29.62,NNW,337,5.8,-999.0,79,-99.99,,,0.00,Acu-Link.com,2013-01-27 18:20:00,
2013-01-27 11:35:00,31.5,26.9,29.62,East,90,2.7,-999.0,83,-99.99,,,0.00,Acu-Link.com,2013-01-27 18:35:00,
2013-01-27 11:50:00,33.3,27.8,29.61,SSE,157,2.7,-999.0,80,-99.99,,,0.00,Acu-Link.com,2013-01-27 18:50:00,
2013-01-27 12:05:00,31.3,26.7,29.60,ESE,112,6.3,-999.0,83,-99.99,,,0.00,Acu-Link.com,2013-01-27 19:05:00,
2013-01-27 12:20:00,30.4,26.7,29.60,SE,135,2.7,-999.0,86,-99.99,,,0.00,Acu-Link.com,2013-01-27 19:20:00,
2013-01-27 12:36:00,30.0,26.4,29.60,ESE,112,3.1,-999.0,86,-99.99,,,0.00,Acu-Link.com,2013-01-27 19:36:00,
2013-01-27 12:51:00,30.0,26.1,29.60,ESE,112,2.2,-999.0,85,-99.99,,,0.00,Acu-Link.com,2013-01-27 19:51:00,
2013-01-27 13:06:00,32.7,27.8,29.60,ESE,112,0.0,-999.0,82,-99.99,,,0.00,Acu-Link.com,2013-01-27 20:06:00,
2013-01-27 13:21:00,33.1,27.9,29.59,ESE,112,2.7,-999.0,81,-99.99,,,0.00,Acu-Link.com,2013-01-27 20:21:00,
2013-01-27 13:36:00,35.4,28.9,29.59,WNW,292,5.1,-999.0,77,-99.99,,,0.00,Acu-Link.com,2013-01-27 20:36:00,
2013-01-27 13:51:00,34.3,28.5,29.59,NW,315,7.4,-999.0,79,-99.99,,,0.00,Acu-Link.com,2013-01-27 20:51:00,
2013-01-27 14:06:00,36.5,29.7,29.60,WNW,292,8.9,-999.0,76,-99.99,,,0.00,Acu-Link.com,2013-01-27 21:06:00,
2013-01-27 14:21:00,35.1,29.2,29.60,West,270,8.9,-999.0,79,-99.99,,,0.00,Acu-Link.com,2013-01-27 21:21:00,
2013-01-27 14:36:00,34.9,29.7,29.60,WNW,292,7.8,-999.0,81,-99.99,,,0.00,Acu-Link.com,2013-01-27 21:36:00,
2013-01-27 14:51:00,33.6,29.0,29.61,WNW,292,11.4,-999.0,83,-99.99,,,0.00,Acu-Link.com,2013-01-27 21:51:00,
2013-01-27 15:06:00,33.1,28.8,29.61,NW,315,9.8,-999.0,84,-99.99,,,0.00,Acu-Link.com,2013-01-27 22:06:00,
2013-01-27 15:21:00,32.5,28.8,29.61,NNW,337,8.3,-999.0,86,-99.99,,,0.00,Acu-Link.com,2013-01-27 22:21:00,
2013-01-27 15:36:00,31.8,28.4,29.61,WNW,292,5.1,-999.0,87,-99.99,,,0.00,Acu-Link.com,2013-01-27 22:36:00,
2013-01-27 15:51:00,31.1,28.0,29.62,WNW,292,7.8,-999.0,88,-99.99,,,0.00,Acu-Link.com,2013-01-27 22:51:00,
2013-01-27 16:06:00,30.6,27.7,29.61,WNW,292,8.3,-999.0,89,-99.99,,,0.00,Acu-Link.com,2013-01-27 23:06:00,
2013-01-27 16:21:00,29.8,27.3,29.62,WNW,292,9.8,-999.0,90,-99.99,,,0.00,Acu-Link.com,2013-01-27 23:21:00,
2013-01-27 16:37:00,29.5,27.2,29.62,WNW,292,7.4,-999.0,91,-99.99,,,0.00,Acu-Link.com,2013-01-27 23:37:00,
2013-01-27 16:52:00,29.3,27.0,29.63,NW,315,13.4,-999.0,91,-99.99,,,0.00,Acu-Link.com,2013-01-27 23:52:00,
2013-01-27 17:07:00,29.1,27.1,29.63,NNW,337,11.9,-999.0,92,-99.99,,,0.00,Acu-Link.com,2013-01-28 00:07:00,
2013-01-27 17:22:00,28.8,26.7,29.63,NW,315,14.5,-999.0,92,-99.99,,,0.00,Acu-Link.com,2013-01-28 00:22:00,
2013-01-27 17:37:00,28.6,27.1,29.63,NW,315,12.5,-999.0,94,-99.99,,,0.00,Acu-Link.com,2013-01-28 00:37:00,
2013-01-27 17:52:00,28.6,27.3,29.64,NNW,337,8.3,-999.0,95,-99.99,,,0.00,Acu-Link.com,2013-01-28 00:52:00,
2013-01-27 18:07:00,28.2,27.0,29.63,NNE,22,5.1,-999.0,95,-99.99,,,0.00,Acu-Link.com,2013-01-28 01:07:00,
2013-01-27 18:22:00,28.0,27.0,29.64,WNW,292,9.8,-999.0,96,-99.99,,,0.00,Acu-Link.com,2013-01-28 01:22:00,
2013-01-27 18:37:00,28.0,27.0,29.65,North,0,5.8,-999.0,96,-99.99,,,0.00,Acu-Link.com,2013-01-28 01:37:00,
2013-01-27 18:52:00,28.0,27.0,29.66,NNW,337,6.3,-999.0,96,-99.99,,,0.00,Acu-Link.com,2013-01-28 01:52:00,
2013-01-27 19:08:00,28.0,27.0,29.66,NNE,22,5.1,-999.0,96,-99.99,,,0.00,Acu-Link.com,2013-01-28 02:08:00,
2013-01-27 19:23:00,28.0,27.0,29.66,North,0,5.8,-999.0,96,-99.99,,,0.00,Acu-Link.com,2013-01-28 02:23:00,
2013-01-27 19:38:00,28.0,27.0,29.65,NNW,337,11.4,-999.0,96,-99.99,,,0.00,Acu-Link.com,2013-01-28 02:38:00,
2013-01-27 19:53:00,28.0,27.3,29.65,NNW,337,7.4,-999.0,97,-99.99,,,0.00,Acu-Link.com,2013-01-28 02:53:00,
2013-01-27 20:08:00,28.2,27.5,29.64,NNW,337,8.9,-999.0,97,-99.99,,,0.00,Acu-Link.com,2013-01-28 03:08:00,
2013-01-27 20:23:00,28.2,27.5,29.64,NW,315,5.1,-999.0,97,-99.99,,,0.00,Acu-Link.com,2013-01-28 03:23:00,
2013-01-27 20:39:00,28.2,27.5,29.65,West,270,6.7,-999.0,97,-99.99,,,0.00,Acu-Link.com,2013-01-28 03:39:00,
2013-01-27 20:54:00,28.4,27.7,29.66,WNW,292,10.3,-999.0,97,-99.99,,,0.00,Acu-Link.com,2013-01-28 03:54:00,
2013-01-27 21:09:00,28.6,27.8,29.66,NW,315,13.4,-999.0,97,-99.99,,,0.00,Acu-Link.com,2013-01-28 04:09:00,
2013-01-27 21:24:00,28.9,28.2,29.67,WNW,292,13.4,-999.0,97,-99.99,,,0.00,Acu-Link.com,2013-01-28 04:24:00,
2013-01-27 21:39:00,29.1,28.4,29.66,WNW,292,11.0,-999.0,97,-99.99,,,0.00,Acu-Link.com,2013-01-28 04:39:00,
2013-01-27 21:54:00,29.3,28.6,29.67,WNW,292,11.4,-999.0,97,-99.99,,,0.00,Acu-Link.com,2013-01-28 04:54:00,
2013-01-27 22:10:00,29.5,28.7,29.66,WNW,292,11.0,-999.0,97,-99.99,,,0.00,Acu-Link.com,2013-01-28 05:10:00,
2013-01-27 22:25:00,29.5,28.7,29.66,WNW,292,13.0,-999.0,97,-99.99,,,0.00,Acu-Link.com,2013-01-28 05:25:00,
2013-01-27 22:40:00,29.5,28.7,29.65,NW,315,7.8,-999.0,97,-99.99,,,0.00,Acu-Link.com,2013-01-28 05:40:00,
2013-01-27 22:55:00,29.5,28.7,29.65,WNW,292,6.3,-999.0,97,-99.99,,,0.00,Acu-Link.com,2013-01-28 05:55:00,
2013-01-27 23:11:00,29.5,28.7,29.65,NW,315,6.7,-999.0,97,-99.99,,,0.00,Acu-Link.com,2013-01-28 06:11:00,
2013-01-27 23:26:00,29.5,29.0,29.65,WNW,292,7.4,-999.0,98,-99.99,,,0.00,Acu-Link.com,2013-01-28 06:26:00,
2013-01-27 23:41:00,29.5,29.0,29.64,NNW,337,8.3,-999.0,98,-99.99,,,0.00,Acu-Link.com,2013-01-28 06:41:00,
2013-01-27 23:56:00,29.7,29.2,29.65,NW,315,9.4,-999.0,98,-99.99,,,0.00,Acu-Link.com,2013-01-28 06:56:00,